Time;durP1;ratioP1;P1;durP2;ratioP2;P2;SDS_P1;SDS_P2;PMS_P1;PMS_P2;Temp;Humidity;BMP_temperature;BMP_pressure;BME280_temperature;BME280_humidity;BME280_pressure;Samples;Min_cycle;Max_cycle;Signal;HPM_P1;HPM_P2
2022/10/16 00:01:41;;;;;;;;;;;;;;;;;;4911687;29;19923;-92
2022/10/16 00:04:06;;;;;;;;;;;;;;;;;;4930341;29;19979;-91
2022/10/16 00:06:32;;;;;;;;;;;;;;;;;;4922679;29;19966;-91
2022/10/16 00:08:58;;;;;;;;;;;;;;;;;;4939472;29;19929;-91
2022/10/16 00:11:28;;;;;;;;;;;;;;;;;;4922259;29;20013;-92
2022/10/16 00:13:58;;;;;;;;;;;;;;;;;;4938468;29;19918;-92
2022/10/16 00:16:24;;;;;;;;;;;;;;;;;;4921351;29;20374;-93
2022/10/16 00:18:49;;;;;;;;;;;;;;;;;;4921258;29;19941;-90
2022/10/16 00:21:16;;;;;;;;;;;;;;;;;;4921184;29;19919;-90
2022/10/16 00:23:42;;;;;;;;;;;;;;;;;;4937611;29;19926;-91
2022/10/16 00:26:10;;;;;;;;;;;;;;;;;;4921124;29;20302;-91
2022/10/16 00:28:36;;;;;;;;;;;;;;;;;;4920873;29;20006;-92
2022/10/16 00:31:05;;;;;;;;;;;;;;;;;;4920704;29;19982;-90
2022/10/16 00:33:31;;;;;;;;;;;;;;;;;;4937982;29;19969;-92
2022/10/16 00:35:59;;;;;;;;;;;;;;;;;;4937608;29;20305;-91
2022/10/16 00:38:25;;;;;;;;;;;;;;;;;;4937214;29;20026;-92
2022/10/16 00:40:50;;;;;;;;;;;;;;;;;;4920711;29;19966;-90
2022/10/16 00:43:34;;;;;;;;;;;;;;;;;;4937921;29;19925;-91
2022/10/16 00:46:04;;;;;;;;;;;;;;;;;;4920663;29;19919;-90
2022/10/16 00:48:30;;;;;;;;;;;;;;;;;;4920496;29;19919;-91
2022/10/16 00:50:56;;;;;;;;;;;;;;;;;;4936443;29;19926;-90
2022/10/16 00:53:22;;;;;;;;;;;;;;;;;;4920036;29;19974;-91
2022/10/16 00:55:47;;;;;;;;;;;;;;;;;;4920629;29;19919;-90
2022/10/16 00:58:12;;;;;;;;;;;;;;;;;;4920626;29;19919;-91
2022/10/16 01:00:38;;;;;;;;;;;;;;;;;;4937662;29;19919;-91
2022/10/16 01:03:22;;;;;;;;;;;;;;;;;;4919988;29;20025;-90
2022/10/16 01:05:57;;;;;;;;;;;;;;;;;;4920366;29;20330;-93
2022/10/16 01:08:26;;;;;;;;;;;;;;;;;;4920624;29;20334;-91
2022/10/16 01:10:59;;;;;;;;;;;;;;;;;;4936725;29;19929;-90
2022/10/16 01:13:28;;;;;;;;;;;;;;;;;;4920146;29;19926;-91
2022/10/16 01:15:58;;;;;;;;;;;;;;;;;;4919589;29;19969;-90
2022/10/16 01:18:33;;;;;;;;;;;;;;;;;;4920012;29;19955;-90
2022/10/16 01:21:07;;;;;;;;;;;;;;;;;;4920092;29;19919;-89
2022/10/16 01:23:32;;;;;;;;;;;;;;;;;;4919398;29;19919;-91
2022/10/16 01:26:16;;;;;;;;;;;;;;;;;;4919886;29;19923;-92
2022/10/16 01:28:45;;;;;;;;;;;;;;;;;;4920083;29;19926;-90
2022/10/16 01:31:11;;;;;;;;;;;;;;;;;;4936457;29;19929;-91
2022/10/16 01:33:43;;;;;;;;;;;;;;;;;;4919513;29;19926;-91
2022/10/16 01:36:16;;;;;;;;;;;;;;;;;;4936583;29;20279;-91
2022/10/16 01:38:43;;;;;;;;;;;;;;;;;;4919574;29;20019;-91
2022/10/16 01:41:14;;;;;;;;;;;;;;;;;;4937163;29;19969;-93
2022/10/16 01:43:46;;;;;;;;;;;;;;;;;;4919721;29;20359;-90
2022/10/16 01:46:13;;;;;;;;;;;;;;;;;;4919753;29;19970;-92
2022/10/16 01:48:39;;;;;;;;;;;;;;;;;;4919607;29;19919;-93
2022/10/16 01:51:12;;;;;;;;;;;;;;;;;;4936096;29;19957;-93
2022/10/16 01:53:38;;;;;;;;;;;;;;;;;;4919333;29;20374;-91
2022/10/16 01:56:05;;;;;;;;;;;;;;;;;;4919255;29;19919;-93
2022/10/16 01:58:34;;;;;;;;;;;;;;;;;;4919545;29;19922;-93
2022/10/16 02:01:01;;;;;;;;;;;;;;;;;;4919646;29;19919;-92
2022/10/16 02:03:27;;;;;;;;;;;;;;;;;;4919099;29;19970;-93
2022/10/16 02:05:56;;;;;;;;;;;;;;;;;;4919453;29;20022;-93
2022/10/16 02:08:23;;;;;;;;;;;;;;;;;;4919420;29;19926;-93
2022/10/16 02:10:49;;;;;;;;;;;;;;;;;;4935993;29;20054;-93
2022/10/16 02:13:33;;;;;;;;;;;;;;;;;;4919369;29;20021;-91
2022/10/16 02:15:58;;;;;;;;;;;;;;;;;;4936488;29;19919;-92
2022/10/16 02:18:28;;;;;;;;;;;;;;;;;;4919287;29;19926;-93
2022/10/16 02:20:59;;;;;;;;;;;;;;;;;;4919187;29;19925;-92
2022/10/16 02:23:29;;;;;;;;;;;;;;;;;;4918664;29;19923;-93
2022/10/16 02:25:56;;;;;;;;;;;;;;;;;;4919142;29;19934;-92
2022/10/16 02:28:28;;;;;;;;;;;;;;;;;;4918696;29;19950;-92
2022/10/16 02:30:58;;;;;;;;;;;;;;;;;;4918671;29;20363;-92
2022/10/16 02:33:25;;;;;;;;;;;;;;;;;;4918466;29;19919;-91
2022/10/16 02:35:51;;;;;;;;;;;;;;;;;;4918927;29;19923;-92
2022/10/16 02:38:17;;;;;;;;;;;;;;;;;;4918603;29;20378;-93
2022/10/16 02:40:43;;;;;;;;;;;;;;;;;;4919016;29;19926;-91
2022/10/16 02:43:09;;;;;;;;;;;;;;;;;;4918402;29;19919;-92
2022/10/16 02:45:35;;;;;;;;;;;;;;;;;;4918961;29;19925;-92
2022/10/16 02:48:00;;;;;;;;;;;;;;;;;;4918485;29;19922;-93
2022/10/16 02:50:26;;;;;;;;;;;;;;;;;;4918349;29;19925;-92
2022/10/16 02:52:51;;;;;;;;;;;;;;;;;;4918961;29;20400;-92
2022/10/16 02:55:16;;;;;;;;;;;;;;;;;;4935084;29;19919;-91
2022/10/16 02:57:42;;;;;;;;;;;;;;;;;;4935670;29;20330;-91
2022/10/16 03:00:09;;;;;;;;;;;;;;;;;;4918417;29;19942;-93
2022/10/16 03:02:35;;;;;;;;;;;;;;;;;;4935385;29;19919;-91
2022/10/16 03:05:00;;;;;;;;;;;;;;;;;;4918329;29;19930;-93
2022/10/16 03:07:25;;;;;;;;;;;;;;;;;;4935350;29;19919;-92
2022/10/16 03:09:51;;;;;;;;;;;;;;;;;;4918496;29;19986;-92
2022/10/16 03:12:16;;;;;;;;;;;;;;;;;;4917811;29;19923;-91
2022/10/16 03:14:42;;;;;;;;;;;;;;;;;;4934483;29;19923;-91
2022/10/16 03:17:07;;;;;;;;;;;;;;;;;;4935238;29;19926;-91
2022/10/16 03:19:32;;;;;;;;;;;;;;;;;;4935124;29;19919;-92
2022/10/16 03:21:58;;;;;;;;;;;;;;;;;;4918411;29;19919;-93
2022/10/16 03:24:23;;;;;;;;;;;;;;;;;;4917596;29;19926;-93
2022/10/16 03:26:49;;;;;;;;;;;;;;;;;;4935381;29;20296;-91
2022/10/16 03:29:14;;;;;;;;;;;;;;;;;;4917526;29;19946;-93
2022/10/16 03:31:40;;;;;;;;;;;;;;;;;;4934957;28;20017;-90
2022/10/16 03:34:05;;;;;;;;;;;;;;;;;;4917719;29;19962;-92
2022/10/16 03:36:31;;;;;;;;;;;;;;;;;;4917328;29;19919;-91
2022/10/16 03:38:56;;;;;;;;;;;;;;;;;;4918280;29;19922;-92
2022/10/16 03:41:22;;;;;;;;;;;;;;;;;;4917857;29;20449;-92
2022/10/16 03:43:47;;;;;;;;;;;;;;;;;;4917803;29;19925;-92
2022/10/16 03:46:12;;;;;;;;;;;;;;;;;;4918105;29;19919;-92
2022/10/16 03:48:39;;;;;;;;;;;;;;;;;;4917919;29;19930;-92
2022/10/16 03:51:05;;;;;;;;;;;;;;;;;;4917836;29;19919;-93
2022/10/16 03:53:30;;;;;;;;;;;;;;;;;;4917521;29;19965;-91
2022/10/16 03:55:56;;;;;;;;;;;;;;;;;;4917744;29;19930;-92
2022/10/16 03:58:22;;;;;;;;;;;;;;;;;;4934941;29;20404;-91
2022/10/16 04:00:48;;;;;;;;;;;;;;;;;;4918284;29;19919;-92
2022/10/16 04:03:13;;;;;;;;;;;;;;;;;;4917669;28;19925;-92
2022/10/16 04:05:39;;;;;;;;;;;;;;;;;;4935001;29;20013;-93
2022/10/16 04:08:04;;;;;;;;;;;;;;;;;;4918201;29;19934;-92
2022/10/16 04:10:30;;;;;;;;;;;;;;;;;;4934702;29;20382;-92
2022/10/16 04:12:55;;;;;;;;;;;;;;;;;;4935172;29;19926;-91
2022/10/16 04:15:21;;;;;;;;;;;;;;;;;;4917886;29;19919;-92
2022/10/16 04:17:47;;;;;;;;;;;;;;;;;;4918366;29;20286;-92
2022/10/16 04:20:12;;;;;;;;;;;;;;;;;;4914440;29;19919;-91
2022/10/16 04:22:38;;;;;;;;;;;;;;;;;;4917107;29;19927;-92
2022/10/16 04:25:04;;;;;;;;;;;;;;;;;;4933233;29;20264;-91
2022/10/16 04:27:31;;;;;;;;;;;;;;;;;;4949044;23;19917;-92
2022/10/16 04:29:57;;;;;;;;;;;;;;;;;;4946731;29;19931;-92
2022/10/16 04:32:22;;;;;;;;;;;;;;;;;;4942434;29;19985;-93
2022/10/16 04:34:48;;;;;;;;;;;;;;;;;;4958768;29;19961;-93
2022/10/16 04:37:13;;;;;;;;;;;;;;;;;;4941689;29;20314;-92
2022/10/16 04:39:38;;;;;;;;;;;;;;;;;;4958165;29;19918;-92
2022/10/16 04:42:04;;;;;;;;;;;;;;;;;;4973035;28;19922;-94
2022/10/16 04:44:29;;;;;;;;;;;;;;;;;;4940270;29;19922;-91
2022/10/16 04:46:55;;;;;;;;;;;;;;;;;;4940764;29;19922;-92
2022/10/16 04:49:20;;;;;;;;;;;;;;;;;;4957264;29;19926;-94
2022/10/16 04:51:46;;;;;;;;;;;;;;;;;;4939684;29;19918;-91
2022/10/16 04:54:11;;;;;;;;;;;;;;;;;;4956969;29;19977;-93
2022/10/16 04:56:42;;;;;;;;;;;;;;;;;;4939215;29;20009;-94
2022/10/16 04:59:08;;;;;;;;;;;;;;;;;;4957084;29;20374;-93
2022/10/16 05:01:34;;;;;;;;;;;;;;;;;;4956975;29;20021;-92
2022/10/16 05:03:59;;;;;;;;;;;;;;;;;;4939371;29;19919;-93
2022/10/16 05:06:25;;;;;;;;;;;;;;;;;;4956764;29;19926;-92
2022/10/16 05:08:50;;;;;;;;;;;;;;;;;;4939613;29;19918;-91
2022/10/16 05:11:15;;;;;;;;;;;;;;;;;;4939017;29;19918;-92
2022/10/16 05:13:41;;;;;;;;;;;;;;;;;;4938384;29;19934;-92
2022/10/16 05:16:06;;;;;;;;;;;;;;;;;;4938815;29;20362;-93
2022/10/16 05:18:32;;;;;;;;;;;;;;;;;;4939874;29;19978;-93
2022/10/16 05:20:57;;;;;;;;;;;;;;;;;;4939693;29;19977;-94
2022/10/16 05:23:23;;;;;;;;;;;;;;;;;;4939417;29;19925;-92
2022/10/16 05:25:53;;;;;;;;;;;;;;;;;;4939078;29;19953;-93
2022/10/16 05:28:18;;;;;;;;;;;;;;;;;;4956163;29;19922;-94
2022/10/16 05:30:44;;;;;;;;;;;;;;;;;;4938989;29;19918;-94
2022/10/16 05:33:09;;;;;;;;;;;;;;;;;;4939034;29;19926;-92
2022/10/16 05:35:35;;;;;;;;;;;;;;;;;;4938537;29;19981;-92
2022/10/16 05:38:00;;;;;;;;;;;;;;;;;;4938374;29;19919;-92
2022/10/16 05:40:26;;;;;;;;;;;;;;;;;;4938810;29;19922;-92
2022/10/16 05:42:54;;;;;;;;;;;;;;;;;;4939225;29;19933;-94
2022/10/16 05:45:19;;;;;;;;;;;;;;;;;;4937767;29;19926;-91
2022/10/16 05:47:45;;;;;;;;;;;;;;;;;;4937541;29;19953;-93
2022/10/16 05:50:10;;;;;;;;;;;;;;;;;;4937364;29;19918;-93
2022/10/16 05:52:36;;;;;;;;;;;;;;;;;;4938085;29;19925;-92
2022/10/16 05:55:01;;;;;;;;;;;;;;;;;;4939055;29;20046;-91
2022/10/16 05:57:27;;;;;;;;;;;;;;;;;;4955476;29;19927;-93
2022/10/16 05:59:52;;;;;;;;;;;;;;;;;;4938413;29;19930;-94
2022/10/16 06:02:18;;;;;;;;;;;;;;;;;;4955740;29;20393;-91
2022/10/16 06:04:43;;;;;;;;;;;;;;;;;;4955421;29;19919;-92
2022/10/16 06:07:09;;;;;;;;;;;;;;;;;;4955708;29;19958;-92
2022/10/16 06:09:34;;;;;;;;;;;;;;;;;;4944151;28;19926;-93
2022/10/16 06:11:59;;;;;;;;;;;;;;;;;;4951558;28;19934;-90
2022/10/16 06:14:25;;;;;;;;;;;;;;;;;;4935120;29;20378;-90
2022/10/16 06:16:50;;;;;;;;;;;;;;;;;;4945933;28;19922;-93
2022/10/16 06:19:17;;;;;;;;;;;;;;;;;;4963763;28;19927;-91
2022/10/16 06:21:43;;;;;;;;;;;;;;;;;;4925496;28;19930;-92
2022/10/16 06:24:08;;;;;;;;;;;;;;;;;;4940311;28;20290;-92
2022/10/16 06:26:34;;;;;;;;;;;;;;;;;;4941014;28;19923;-91
2022/10/16 06:28:59;;;;;;;;;;;;;;;;;;4921667;28;19954;-90
2022/10/16 06:31:27;;;;;;;;;;;;;;;;;;4927315;29;20383;-92
2022/10/16 06:33:53;;;;;;;;;;;;;;;;;;4925219;28;19930;-90
2022/10/16 06:36:18;;;;;;;;;;;;;;;;;;4930464;29;19926;-90
2022/10/16 06:38:44;;;;;;;;;;;;;;;;;;4935917;29;19926;-93
2022/10/16 06:41:13;;;;;;;;;;;;;;;;;;4938150;29;19944;-91
2022/10/16 06:43:39;;;;;;;;;;;;;;;;;;4935164;29;19962;-90
2022/10/16 06:46:07;;;;;;;;;;;;;;;;;;4955983;28;19969;-90
2022/10/16 06:48:33;;;;;;;;;;;;;;;;;;4917964;29;19922;-92
2022/10/16 06:50:59;;;;;;;;;;;;;;;;;;4917450;29;19918;-91
2022/10/16 06:53:25;;;;;;;;;;;;;;;;;;4917924;29;19948;-92
2022/10/16 06:55:51;;;;;;;;;;;;;;;;;;4915486;29;19923;-91
2022/10/16 06:58:16;;;;;;;;;;;;;;;;;;4915908;29;19923;-91
2022/10/16 07:00:41;;;;;;;;;;;;;;;;;;4932925;28;19937;-90
2022/10/16 07:03:07;;;;;;;;;;;;;;;;;;4927261;29;19923;-88
2022/10/16 07:05:37;;;;;;;;;;;;;;;;;;4932310;29;19923;-92
2022/10/16 07:08:04;;;;;;;;;;;;;;;;;;4932164;29;19978;-90
2022/10/16 07:10:31;;;;;;;;;;;;;;;;;;4916319;29;19927;-91
2022/10/16 07:12:56;;;;;;;;;;;;;;;;;;4944516;29;19931;-90
2022/10/16 07:15:22;;;;;;;;;;;;;;;;;;4945723;29;20421;-93
2022/10/16 07:17:47;;;;;;;;;;;;;;;;;;4934780;29;20403;-92
2022/10/16 07:20:12;;;;;;;;;;;;;;;;;;4953641;29;19977;-90
2022/10/16 07:22:38;;;;;;;;;;;;;;;;;;4936139;29;19922;-89
2022/10/16 07:25:04;;;;;;;;;;;;;;;;;;4938024;29;19922;-90
2022/10/16 07:27:29;;;;;;;;;;;;;;;;;;4955944;28;20377;-92
2022/10/16 07:29:54;;;;;;;;;;;;;;;;;;4937935;29;19922;-92
2022/10/16 07:32:20;;;;;;;;;;;;;;;;;;4942843;28;19933;-90
2022/10/16 07:34:45;;;;;;;;;;;;;;;;;;4947230;29;19923;-90
2022/10/16 07:37:11;;;;;;;;;;;;;;;;;;4935545;29;19922;-90
2022/10/16 07:39:36;;;;;;;;;;;;;;;;;;4940071;29;19970;-91
2022/10/16 07:42:02;;;;;;;;;;;;;;;;;;4933498;29;20381;-90
2022/10/16 07:44:27;;;;;;;;;;;;;;;;;;4933660;29;19922;-90
2022/10/16 07:46:53;;;;;;;;;;;;;;;;;;4933943;29;19922;-89
2022/10/16 07:49:18;;;;;;;;;;;;;;;;;;4934869;28;19930;-91
2022/10/16 07:51:43;;;;;;;;;;;;;;;;;;4921719;29;19927;-91
2022/10/16 07:54:10;;;;;;;;;;;;;;;;;;4937298;29;19930;-89
2022/10/16 07:56:35;;;;;;;;;;;;;;;;;;4936809;28;20377;-92
2022/10/16 07:59:01;;;;;;;;;;;;;;;;;;4939013;29;19933;-90
2022/10/16 08:01:26;;;;;;;;;;;;;;;;;;4941548;28;19934;-90
2022/10/16 08:03:52;;;;;;;;;;;;;;;;;;4954393;29;20293;-89
2022/10/16 08:06:18;;;;;;;;;;;;;;;;;;4936865;29;19922;-92
2022/10/16 08:08:44;;;;;;;;;;;;;;;;;;4942647;29;20030;-91
2022/10/16 08:11:10;;;;;;;;;;;;;;;;;;4937847;29;20434;-91
2022/10/16 08:13:35;;;;;;;;;;;;;;;;;;4951390;29;19922;-90
2022/10/16 08:16:01;;;;;;;;;;;;;;;;;;4954194;29;20267;-91
2022/10/16 08:18:26;;;;;;;;;;;;;;;;;;4955403;29;19923;-89
2022/10/16 08:20:56;;;;;;;;;;;;;;;;;;4938472;29;19926;-89
2022/10/16 08:23:22;;;;;;;;;;;;;;;;;;4964634;28;19926;-91
2022/10/16 08:25:47;;;;;;;;;;;;;;;;;;4938849;29;19919;-90
2022/10/16 08:28:13;;;;;;;;;;;;;;;;;;4955436;29;19930;-89
2022/10/16 08:30:38;;;;;;;;;;;;;;;;;;4938095;29;19922;-90
2022/10/16 08:33:05;;;;;;;;;;;;;;;;;;4954053;28;19929;-90
2022/10/16 08:35:33;;;;;;;;;;;;;;;;;;4957321;29;20074;-89
2022/10/16 08:37:59;;;;;;;;;;;;;;;;;;4934859;29;19938;-91
2022/10/16 08:40:26;;;;;;;;;;;;;;;;;;4962577;29;19922;-90
2022/10/16 08:42:52;;;;;;;;;;;;;;;;;;4951744;29;19929;-90
2022/10/16 08:45:30;;;;;;;;;;;;;;;;;;4961432;29;19949;-90
2022/10/16 08:48:11;;;;;;;;;;;;;;;;;;4947531;29;20631;-90
2022/10/16 08:50:41;;;;;;;;;;;;;;;;;;4929593;29;19927;-89
2022/10/16 08:53:13;;;;;;;;;;;;;;;;;;4929776;29;19923;-92
2022/10/16 08:55:42;;;;;;;;;;;;;;;;;;4937064;29;19964;-90
2022/10/16 08:58:27;;;;;;;;;;;;;;;;;;4922063;29;19927;-91
2022/10/16 09:00:56;;;;;;;;;;;;;;;;;;4945183;29;20025;-92
2022/10/16 09:03:40;;;;;;;;;;;;;;;;;;4946721;29;19926;-89
2022/10/16 09:06:26;;;;;;;;;;;;;;;;;;4954885;29;20010;-88
2022/10/16 09:08:52;;;;;;;;;;;;;;;;;;4927984;29;19931;-90
2022/10/16 09:11:29;;;;;;;;;;;;;;;;;;4941696;29;19927;-91
2022/10/16 09:17:10;;;;;;;;;;;;;;;;;;4948370;23;20042;-91
2022/10/16 09:19:38;;;;;;;;;;;;;;;;;;4917273;29;19930;-92
2022/10/16 09:22:12;;;;;;;;;;;;;;;;;;4917193;29;19973;-91
2022/10/16 09:24:38;;;;;;;;;;;;;;;;;;4918001;29;19923;-90
2022/10/16 09:27:03;;;;;;;;;;;;;;;;;;4917161;29;19993;-91
2022/10/16 09:29:28;;;;;;;;;;;;;;;;;;4933985;29;19989;-90
2022/10/16 09:31:55;;;;;;;;;;;;;;;;;;4933818;29;20362;-87
2022/10/16 09:34:34;;;;;;;;;;;;;;;;;;4933556;29;20302;-91
2022/10/16 09:37:01;;;;;;;;;;;;;;;;;;4933072;29;19922;-89
2022/10/16 09:39:26;;;;;;;;;;;;;;;;;;4954382;29;19918;-89
2022/10/16 09:41:52;;;;;;;;;;;;;;;;;;4935329;29;20238;-91
2022/10/16 09:44:23;;;;;;;;;;;;;;;;;;4952819;29;19953;-90
2022/10/16 09:46:49;;;;;;;;;;;;;;;;;;4934606;29;19918;-90
2022/10/16 09:49:17;;;;;;;;;;;;;;;;;;4929435;29;19942;-89
2022/10/16 09:51:43;;;;;;;;;;;;;;;;;;4951737;29;19935;-89
2022/10/16 09:54:08;;;;;;;;;;;;;;;;;;4935250;29;20330;-90
2022/10/16 09:56:41;;;;;;;;;;;;;;;;;;4951414;29;19933;-89
2022/10/16 09:59:13;;;;;;;;;;;;;;;;;;4947696;29;20386;-90
2022/10/16 10:01:47;;;;;;;;;;;;;;;;;;4923431;29;19969;-91
2022/10/16 10:04:12;;;;;;;;;;;;;;;;;;4945110;29;20000;-91
2022/10/16 10:06:42;;;;;;;;;;;;;;;;;;4948584;29;20017;-89
2022/10/16 10:09:20;;;;;;;;;;;;;;;;;;4936486;29;19922;-90
2022/10/16 10:11:46;;;;;;;;;;;;;;;;;;4935022;29;20006;-89
2022/10/16 10:14:33;;;;;;;;;;;;;;;;;;4934554;29;20021;-90
2022/10/16 10:17:04;;;;;;;;;;;;;;;;;;4934471;29;20267;-91
2022/10/16 10:19:37;;;;;;;;;;;;;;;;;;4944622;29;19926;-90
2022/10/16 10:22:13;;;;;;;;;;;;;;;;;;4951709;29;19922;-90
2022/10/16 10:24:38;;;;;;;;;;;;;;;;;;4933977;29;19923;-93
2022/10/16 10:27:07;;;;;;;;;;;;;;;;;;4934309;29;19949;-93
2022/10/16 10:29:51;;;;;;;;;;;;;;;;;;4951616;29;20302;-91
2022/10/16 10:32:17;;;;;;;;;;;;;;;;;;4934104;29;19922;-88
2022/10/16 10:35:00;;;;;;;;;;;;;;;;;;4933837;29;20340;-89
2022/10/16 10:37:26;;;;;;;;;;;;;;;;;;4930966;29;19923;-90
2022/10/16 10:40:05;;;;;;;;;;;;;;;;;;4917512;29;19937;-91
2022/10/16 10:42:43;;;;;;;;;;;;;;;;;;4953170;29;20401;-91
2022/10/16 10:45:21;;;;;;;;;;;;;;;;;;4951829;29;19969;-89
2022/10/16 10:47:46;;;;;;;;;;;;;;;;;;4951560;29;19922;-90
2022/10/16 10:50:47;;;;;;;;;;;;;;;;;;4951406;29;19973;-90
2022/10/16 10:53:19;;;;;;;;;;;;;;;;;;4872826;29;20022;-90
2022/10/16 10:56:03;;;;;;;;;;;;;;;;;;4857019;29;20069;-90
2022/10/16 10:58:46;;;;;;;;;;;;;;;;;;4857203;29;19927;-89
2022/10/16 11:01:13;;;;;;;;;;;;;;;;;;4857412;29;19924;-88
2022/10/16 11:03:57;;;;;;;;;;;;;;;;;;4873102;29;20014;-89
2022/10/16 11:06:24;;;;;;;;;;;;;;;;;;4867723;29;20381;-90
2022/10/16 11:08:52;;;;;;;;;;;;;;;;;;4838950;29;19964;-91
2022/10/16 11:11:23;;;;;;;;;;;;;;;;;;4856221;29;19994;-89
2022/10/16 11:13:48;;;;;;;;;;;;;;;;;;4855231;29;19947;-90
2022/10/16 11:16:20;;;;;;;;;;;;;;;;;;4839189;29;20380;-90
2022/10/16 11:18:45;;;;;;;;;;;;;;;;;;4838518;29;20392;-91
2022/10/16 11:21:12;;;;;;;;;;;;;;;;;;4855018;29;20022;-92
2022/10/16 11:23:41;;;;;;;;;;;;;;;;;;4839384;29;19995;-90
2022/10/16 11:26:11;;;;;;;;;;;;;;;;;;4841095;29;19924;-89
2022/10/16 11:28:45;;;;;;;;;;;;;;;;;;4931870;29;19919;-90
2022/10/16 11:31:14;;;;;;;;;;;;;;;;;;4914907;29;19923;-88
2022/10/16 11:33:41;;;;;;;;;;;;;;;;;;4914611;29;19926;-91
2022/10/16 11:36:17;;;;;;;;;;;;;;;;;;4926649;29;19954;-89
2022/10/16 11:38:48;;;;;;;;;;;;;;;;;;4936972;29;19930;-90
2022/10/16 11:41:32;;;;;;;;;;;;;;;;;;4937560;29;20297;-92
2022/10/16 11:44:07;;;;;;;;;;;;;;;;;;4937585;29;19928;-90
2022/10/16 11:46:34;;;;;;;;;;;;;;;;;;4954535;29;20005;-89
2022/10/16 11:49:08;;;;;;;;;;;;;;;;;;4937342;29;19922;-90
2022/10/16 11:51:36;;;;;;;;;;;;;;;;;;4952173;29;20308;-88
2022/10/16 11:54:04;;;;;;;;;;;;;;;;;;4954280;29;19950;-91
2022/10/16 11:56:31;;;;;;;;;;;;;;;;;;4939974;29;19966;-89
2022/10/16 11:59:06;;;;;;;;;;;;;;;;;;4938581;29;19918;-90
2022/10/16 12:01:38;;;;;;;;;;;;;;;;;;4937093;29;19929;-91
2022/10/16 12:04:07;;;;;;;;;;;;;;;;;;4956484;29;19923;-91
2022/10/16 12:06:51;;;;;;;;;;;;;;;;;;4953751;29;20022;-91
2022/10/16 12:09:26;;;;;;;;;;;;;;;;;;4953807;29;19922;-90
2022/10/16 12:11:52;;;;;;;;;;;;;;;;;;4954369;29;19933;-92
2022/10/16 12:14:34;;;;;;;;;;;;;;;;;;4937071;29;20013;-90
2022/10/16 12:17:01;;;;;;;;;;;;;;;;;;4954123;29;19930;-90
2022/10/16 12:19:41;;;;;;;;;;;;;;;;;;4945085;29;19927;-91
2022/10/16 12:22:17;;;;;;;;;;;;;;;;;;4936610;23;19933;-91
2022/10/16 12:24:43;;;;;;;;;;;;;;;;;;4939558;29;19928;-92
2022/10/16 12:27:27;;;;;;;;;;;;;;;;;;4938861;29;19922;-92
2022/10/16 12:29:57;;;;;;;;;;;;;;;;;;4937407;29;20268;-92
2022/10/16 12:32:31;;;;;;;;;;;;;;;;;;4935860;29;20059;-92
2022/10/16 12:34:57;;;;;;;;;;;;;;;;;;4953409;28;19927;-90
2022/10/16 12:37:49;;;;;;;;;;;;;;;;;;4954747;29;19933;-90
2022/10/16 12:40:27;;;;;;;;;;;;;;;;;;4969739;28;19969;-90
2022/10/16 12:42:52;;;;;;;;;;;;;;;;;;4964525;28;19914;-90
2022/10/16 12:45:36;;;;;;;;;;;;;;;;;;4962915;28;19926;-93
2022/10/16 12:48:02;;;;;;;;;;;;;;;;;;4948514;29;19926;-92
2022/10/16 12:50:40;;;;;;;;;;;;;;;;;;4941110;29;20406;-89
2022/10/16 12:53:19;;;;;;;;;;;;;;;;;;4926883;29;19922;-90
2022/10/16 12:56:07;;;;;;;;;;;;;;;;;;4947733;28;19971;-90
2022/10/16 12:58:55;;;;;;;;;;;;;;;;;;4925805;29;19929;-91
2022/10/16 13:01:28;;;;;;;;;;;;;;;;;;4948543;28;19931;-91
2022/10/16 13:04:00;;;;;;;;;;;;;;;;;;4946063;28;19922;-91
2022/10/16 13:06:25;;;;;;;;;;;;;;;;;;4938798;29;19977;-89
2022/10/16 13:08:57;;;;;;;;;;;;;;;;;;4944410;29;20297;-90
2022/10/16 13:11:43;;;;;;;;;;;;;;;;;;4953107;29;19990;-89
2022/10/16 13:14:24;;;;;;;;;;;;;;;;;;4952343;29;19919;-89
2022/10/16 13:17:03;;;;;;;;;;;;;;;;;;4938521;29;19922;-90
2022/10/16 13:19:45;;;;;;;;;;;;;;;;;;4954936;29;19922;-90
2022/10/16 13:22:19;;;;;;;;;;;;;;;;;;4955107;29;19961;-91
2022/10/16 13:25:07;;;;;;;;;;;;;;;;;;4938032;29;19982;-88
2022/10/16 13:27:54;;;;;;;;;;;;;;;;;;4936294;29;19918;-91
2022/10/16 13:30:21;;;;;;;;;;;;;;;;;;4955882;29;19922;-90
2022/10/16 13:32:48;;;;;;;;;;;;;;;;;;4935608;29;19946;-90
2022/10/16 13:35:21;;;;;;;;;;;;;;;;;;4948750;29;20397;-92
2022/10/16 13:37:46;;;;;;;;;;;;;;;;;;4935684;29;19929;-93
2022/10/16 13:40:22;;;;;;;;;;;;;;;;;;4967761;28;20013;-90
2022/10/16 13:42:48;;;;;;;;;;;;;;;;;;4933830;29;19930;-93
2022/10/16 13:45:18;;;;;;;;;;;;;;;;;;4936859;29;19923;-91
2022/10/16 13:47:43;;;;;;;;;;;;;;;;;;4935906;29;20013;-93
2022/10/16 13:50:11;;;;;;;;;;;;;;;;;;4925183;29;20013;-92
2022/10/16 13:52:41;;;;;;;;;;;;;;;;;;4924028;29;19971;-90
2022/10/16 13:55:13;;;;;;;;;;;;;;;;;;4960114;28;20312;-90
2022/10/16 13:57:39;;;;;;;;;;;;;;;;;;4946350;28;19931;-92
2022/10/16 14:00:17;;;;;;;;;;;;;;;;;;4926818;28;20421;-90
2022/10/16 14:02:43;;;;;;;;;;;;;;;;;;4947329;28;19926;-90
2022/10/16 14:05:10;;;;;;;;;;;;;;;;;;4924684;28;19934;-89
2022/10/16 14:07:36;;;;;;;;;;;;;;;;;;4938296;28;19927;-89
2022/10/16 14:10:04;;;;;;;;;;;;;;;;;;4938024;28;19926;-90
2022/10/16 14:12:30;;;;;;;;;;;;;;;;;;4941478;28;19923;-90
2022/10/16 14:14:57;;;;;;;;;;;;;;;;;;4922143;28;19926;-93
2022/10/16 14:17:24;;;;;;;;;;;;;;;;;;4921390;28;19937;-90
2022/10/16 14:19:51;;;;;;;;;;;;;;;;;;4938207;28;19926;-91
2022/10/16 14:22:33;;;;;;;;;;;;;;;;;;4938421;29;19927;-91
2022/10/16 14:24:58;;;;;;;;;;;;;;;;;;4942215;28;19930;-90
2022/10/16 14:27:27;;;;;;;;;;;;;;;;;;4920536;28;19937;-91
2022/10/16 14:30:05;;;;;;;;;;;;;;;;;;4939493;28;19926;-89
2022/10/16 14:32:31;;;;;;;;;;;;;;;;;;4939761;28;19922;-91
2022/10/16 14:34:56;;;;;;;;;;;;;;;;;;4921696;28;20007;-90
2022/10/16 14:37:26;;;;;;;;;;;;;;;;;;4919735;28;19934;-91
2022/10/16 14:39:52;;;;;;;;;;;;;;;;;;4936563;28;20441;-90
2022/10/16 14:42:19;;;;;;;;;;;;;;;;;;4940358;28;19930;-92
2022/10/16 14:44:45;;;;;;;;;;;;;;;;;;4951774;28;20448;-93
2022/10/16 14:47:13;;;;;;;;;;;;;;;;;;4917311;29;19923;-90
2022/10/16 14:49:38;;;;;;;;;;;;;;;;;;4940680;29;19923;-90
2022/10/16 14:52:08;;;;;;;;;;;;;;;;;;4923975;29;20001;-90
2022/10/16 14:54:33;;;;;;;;;;;;;;;;;;4917018;29;20278;-90
2022/10/16 14:56:59;;;;;;;;;;;;;;;;;;4927981;29;19977;-90
2022/10/16 14:59:36;;;;;;;;;;;;;;;;;;4944244;28;20464;-89
2022/10/16 15:02:20;;;;;;;;;;;;;;;;;;4930884;28;19930;-92
2022/10/16 15:04:45;;;;;;;;;;;;;;;;;;4926795;29;20016;-91
2022/10/16 15:07:11;;;;;;;;;;;;;;;;;;4918576;29;20461;-90
2022/10/16 15:09:36;;;;;;;;;;;;;;;;;;4939244;28;19918;-91
2022/10/16 15:12:02;;;;;;;;;;;;;;;;;;4948680;29;19974;-92
2022/10/16 15:14:27;;;;;;;;;;;;;;;;;;4932611;29;19993;-92
2022/10/16 15:16:53;;;;;;;;;;;;;;;;;;4932731;29;19942;-90
2022/10/16 15:19:18;;;;;;;;;;;;;;;;;;4914631;29;19922;-93
2022/10/16 15:21:44;;;;;;;;;;;;;;;;;;4914927;29;19935;-94
2022/10/16 15:24:12;;;;;;;;;;;;;;;;;;4915120;29;20271;-92
2022/10/16 15:26:37;;;;;;;;;;;;;;;;;;4931840;29;19923;-93
2022/10/16 15:29:03;;;;;;;;;;;;;;;;;;4914497;29;19970;-91
2022/10/16 15:31:28;;;;;;;;;;;;;;;;;;4931972;29;19922;-92
2022/10/16 15:33:57;;;;;;;;;;;;;;;;;;4915118;29;19925;-91
2022/10/16 15:36:28;;;;;;;;;;;;;;;;;;4943163;29;20029;-91
2022/10/16 15:38:53;;;;;;;;;;;;;;;;;;4951169;29;19970;-92
2022/10/16 15:41:19;;;;;;;;;;;;;;;;;;4953371;29;20389;-93
2022/10/16 15:43:48;;;;;;;;;;;;;;;;;;4938788;29;19923;-92
2022/10/16 15:46:16;;;;;;;;;;;;;;;;;;4933975;29;19973;-91
2022/10/16 15:48:43;;;;;;;;;;;;;;;;;;4950894;28;19974;-92
2022/10/16 15:51:08;;;;;;;;;;;;;;;;;;4951005;28;19922;-90
2022/10/16 15:53:34;;;;;;;;;;;;;;;;;;4933387;29;20013;-90
2022/10/16 15:56:03;;;;;;;;;;;;;;;;;;4932616;29;20020;-89
2022/10/16 15:58:30;;;;;;;;;;;;;;;;;;4932779;29;19922;-91
2022/10/16 16:01:00;;;;;;;;;;;;;;;;;;4933627;29;20057;-92
2022/10/16 16:03:26;;;;;;;;;;;;;;;;;;4950601;29;19950;-90
2022/10/16 16:05:52;;;;;;;;;;;;;;;;;;4933505;29;19944;-91
2022/10/16 16:08:17;;;;;;;;;;;;;;;;;;4933088;29;19923;-92
2022/10/16 16:10:43;;;;;;;;;;;;;;;;;;4933566;29;20021;-91
2022/10/16 16:13:08;;;;;;;;;;;;;;;;;;4935464;29;19922;-91
2022/10/16 16:15:34;;;;;;;;;;;;;;;;;;4933169;29;19926;-92
2022/10/16 16:18:02;;;;;;;;;;;;;;;;;;4935007;29;19926;-91
2022/10/16 16:20:27;;;;;;;;;;;;;;;;;;4935582;28;19950;-91
2022/10/16 16:22:52;;;;;;;;;;;;;;;;;;4939074;29;19969;-91
2022/10/16 16:25:18;;;;;;;;;;;;;;;;;;4956023;28;19930;-91
2022/10/16 16:27:44;;;;;;;;;;;;;;;;;;4938079;28;19945;-91
2022/10/16 16:30:10;;;;;;;;;;;;;;;;;;4937498;29;19933;-90
2022/10/16 16:32:36;;;;;;;;;;;;;;;;;;4936749;29;19926;-91
2022/10/16 16:35:02;;;;;;;;;;;;;;;;;;4936065;28;20396;-89
2022/10/16 16:37:27;;;;;;;;;;;;;;;;;;4936081;28;19922;-92
2022/10/16 16:39:54;;;;;;;;;;;;;;;;;;4959593;28;20305;-92
2022/10/16 16:42:20;;;;;;;;;;;;;;;;;;4946028;29;19915;-91
2022/10/16 16:44:47;;;;;;;;;;;;;;;;;;4955279;28;19933;-92
2022/10/16 16:47:12;;;;;;;;;;;;;;;;;;4941144;29;19920;-90
2022/10/16 16:49:38;;;;;;;;;;;;;;;;;;4919826;29;20010;-91
2022/10/16 16:52:03;;;;;;;;;;;;;;;;;;4918046;29;19958;-92
2022/10/16 16:54:29;;;;;;;;;;;;;;;;;;4935878;28;20378;-92
2022/10/16 16:56:54;;;;;;;;;;;;;;;;;;4939307;29;19927;-92
2022/10/16 16:59:21;;;;;;;;;;;;;;;;;;4935891;29;19919;-89